Time;durP1;ratioP1;P1;durP2;ratioP2;P2;SDS_P1;SDS_P2;PMS_P1;PMS_P2;Temp;Humidity;BMP_temperature;BMP_pressure;BME280_temperature;BME280_humidity;BME280_pressure;Samples;Min_cycle;Max_cycle;Signal;HPM_P1;HPM_P2
2023/07/08 00:01:36;;;;;;;3.67;1.92;;;15.20;99.90;;;;;;5058021;28;20552;-58
2023/07/08 00:04:03;;;;;;;;;;;15.10;99.90;;;;;;5059130;28;20102;-56
2023/07/08 00:06:29;;;;;;;5.38;2.90;;;15.10;99.90;;;;;;5057410;28;20387;-56
2023/07/08 00:08:55;;;;;;;;;;;15.20;99.90;;;;;;5059418;28;20045;-57
2023/07/08 00:11:21;;;;;;;6.05;2.85;;;15.10;99.90;;;;;;5057286;28;20416;-59
2023/07/08 00:13:47;;;;;;;6.22;2.80;;;15.00;99.90;;;;;;5057639;28;20167;-63
2023/07/08 00:16:14;;;;;;;;;;;15.00;99.90;;;;;;5057201;28;20033;-56
2023/07/08 00:18:40;;;;;;;;;;;15.00;99.90;;;;;;5047794;28;19917;-60
2023/07/08 00:21:16;;;;;;;5.50;2.47;;;15.00;99.90;;;;;;5044944;28;20381;-58
2023/07/08 00:23:45;;;;;;;;;;;14.90;99.90;;;;;;5044037;28;20040;-58
2023/07/08 00:26:24;;;;;;;5.07;2.47;;;14.90;99.90;;;;;;5044276;28;19925;-58
2023/07/08 00:28:50;;;;;;;6.03;2.40;;;14.80;99.90;;;;;;5045779;28;20486;-57
2023/07/08 00:31:15;;;;;;;;;;;14.80;99.90;;;;;;5043858;28;20037;-55
2023/07/08 00:33:41;;;;;;;7.15;2.95;;;14.80;99.90;;;;;;5045063;28;20035;-58
2023/07/08 00:36:11;;;;;;;;;;;14.70;99.90;;;;;;5044933;28;20040;-59
2023/07/08 00:38:36;;;;;;;4.35;2.75;;;14.80;99.90;;;;;;5045299;28;19917;-59
2023/07/08 00:41:02;;;;;;;;;;;14.80;99.90;;;;;;5044687;28;20033;-53
2023/07/08 00:43:47;;;;;;;7.57;2.35;;;14.70;99.90;;;;;;5046103;28;20011;-58
2023/07/08 00:46:23;;;;;;;7.40;3.08;;;14.60;99.90;;;;;;5043473;28;20043;-56
2023/07/08 00:48:51;;;;;;;4.68;2.97;;;14.60;99.90;;;;;;5045392;28;20033;-58
2023/07/08 00:51:19;;;;;;;6.25;2.58;;;14.60;99.90;;;;;;5041874;28;20072;-59
2023/07/08 00:53:44;;;;;;;6.25;3.00;;;14.60;99.90;;;;;;5045106;28;20040;-61
2023/07/08 00:56:16;;;;;;;;;;;14.50;99.90;;;;;;5043968;28;20037;-57
2023/07/08 00:58:56;;;;;;;6.85;3.03;;;14.60;99.90;;;;;;5046298;28;19959;-54
2023/07/08 01:01:22;;;;;;;6.30;2.97;;;14.40;99.90;;;;;;5042969;28;20044;-55
2023/07/08 01:03:49;;;;;;;;;;;14.50;99.90;;;;;;5046381;28;20927;-58
2023/07/08 01:06:16;;;;;;;;;;;14.40;99.90;;;;;;5043941;28;19925;-59
2023/07/08 01:08:41;;;;;;;5.38;2.58;;;14.40;99.90;;;;;;5044896;28;20466;-58
2023/07/08 01:11:07;;;;;;;;;;;14.40;99.90;;;;;;5044137;28;20037;-59
2023/07/08 01:13:39;;;;;;;5.82;3.25;;;14.50;99.90;;;;;;5045675;28;19917;-57
2023/07/08 01:16:06;;;;;;;5.55;2.97;;;14.50;99.90;;;;;;5043641;28;20094;-58
2023/07/08 01:18:33;;;;;;;10.10;3.17;;;14.50;99.90;;;;;;5035712;28;20170;-58
2023/07/08 01:21:27;;;;;;;5.72;2.72;;;14.40;99.90;;;;;;5044614;28;20167;-58
2023/07/08 01:23:53;;;;;;;10.00;2.63;;;14.40;99.90;;;;;;5038878;28;20215;-56
2023/07/08 01:26:19;;;;;;;;;;;14.40;99.90;;;;;;5043310;28;20076;-60
2023/07/08 01:28:45;;;;;;;4.95;2.95;;;14.40;99.90;;;;;;5043348;28;19967;-54
2023/07/08 01:31:11;;;;;;;;;;;14.40;99.90;;;;;;5041466;28;20068;-60
2023/07/08 01:33:36;;;;;;;7.40;2.70;;;14.40;99.90;;;;;;5043261;28;19916;-58
2023/07/08 01:36:02;;;;;;;;;;;14.30;99.90;;;;;;5044509;28;20047;-57
2023/07/08 01:38:28;;;;;;;9.55;2.25;;;14.30;99.90;;;;;;5042489;28;19925;-58
2023/07/08 01:40:55;;;;;;;;;;;14.30;99.90;;;;;;5044134;28;20040;-56
2023/07/08 01:43:21;;;;;;;4.80;2.90;;;14.30;99.90;;;;;;5042225;28;19931;-59
2023/07/08 01:45:47;;;;;;;;;;;14.30;99.90;;;;;;5045126;28;20041;-49
2023/07/08 01:48:16;;;;;;;6.43;3.28;;;14.30;99.90;;;;;;5041681;28;19929;-55
2023/07/08 01:50:47;;;;;;;4.82;2.60;;;14.30;99.90;;;;;;5032936;28;20123;-60
2023/07/08 01:53:19;;;;;;;4.13;3.05;;;14.40;99.90;;;;;;5042562;28;20043;-57
2023/07/08 01:55:45;;;;;;;6.65;2.53;;;14.40;99.90;;;;;;5037161;28;20093;-59
2023/07/08 01:58:10;;;;;;;;;;;14.40;99.90;;;;;;5042284;28;20075;-55
2023/07/08 02:00:36;;;;;;;6.85;2.80;;;14.30;99.90;;;;;;5043052;28;19921;-56
2023/07/08 02:03:02;;;;;;;;;;;14.30;99.90;;;;;;5042037;28;20041;-60
2023/07/08 02:05:27;;;;;;;5.30;2.28;;;14.20;99.90;;;;;;5041511;28;19920;-61
2023/07/08 02:07:53;;;;;;;;;;;14.20;99.90;;;;;;5042323;28;20041;-59
2023/07/08 02:10:18;;;;;;;3.63;2.78;;;14.20;99.90;;;;;;5043688;28;19917;-57
2023/07/08 02:12:44;;;;;;;;;;;14.30;99.90;;;;;;5041848;28;20394;-58
2023/07/08 02:15:10;;;;;;;4.43;2.55;;;14.30;99.90;;;;;;5040666;28;19920;-55
2023/07/08 02:17:35;;;;;;;9.35;3.33;;;14.30;99.90;;;;;;5042255;28;20037;-55
2023/07/08 02:20:01;;;;;;;;;;;14.40;99.90;;;;;;5043786;28;20055;-56
2023/07/08 02:22:26;;;;;;;4.07;2.90;;;14.30;99.90;;;;;;5041806;28;19986;-58
2023/07/08 02:24:52;;;;;;;10.93;2.60;;;14.30;99.90;;;;;;5042786;28;20151;-50
2023/07/08 02:27:18;;;;;;;;;;;14.30;99.90;;;;;;5041603;28;20037;-58
2023/07/08 02:29:43;;;;;;;4.68;2.22;;;14.40;99.90;;;;;;5042429;28;20347;-57
2023/07/08 02:32:09;;;;;;;;;;;14.40;99.90;;;;;;5041474;28;20781;-56
2023/07/08 02:34:36;;;;;;;5.00;2.75;;;14.30;99.90;;;;;;5043193;28;19928;-53
2023/07/08 02:37:02;;;;;;;7.70;3.03;;;14.30;99.90;;;;;;5041214;28;20532;-56
2023/07/08 02:39:28;;;;;;;3.50;2.50;;;14.40;99.90;;;;;;5042404;28;20041;-56
2023/07/08 02:41:53;;;;;;;;;;;14.30;99.90;;;;;;5041332;28;20055;-59
2023/07/08 02:44:19;;;;;;;7.28;2.65;;;14.40;99.90;;;;;;5041832;28;19999;-58
2023/07/08 02:46:44;;;;;;;;;;;14.40;99.90;;;;;;5042658;28;20052;-60
2023/07/08 02:49:10;;;;;;;5.00;2.83;;;14.40;99.90;;;;;;5042933;28;20011;-57
2023/07/08 02:51:36;;;;;;;4.55;2.85;;;14.40;99.90;;;;;;5036584;28;20516;-58
2023/07/08 02:54:01;;;;;;;;;;;14.40;99.90;;;;;;5042397;28;20036;-56
2023/07/08 02:56:27;;;;;;;5.28;2.50;;;14.30;99.90;;;;;;5041844;28;19925;-54
2023/07/08 02:58:52;;;;;;;;;;;14.30;99.90;;;;;;5042667;28;20127;-57
2023/07/08 03:01:18;;;;;;;3.25;2.50;;;14.30;99.90;;;;;;5040671;28;19925;-61
2023/07/08 03:03:44;;;;;;;;;;;14.30;99.90;;;;;;5042374;28;20046;-56
2023/07/08 03:06:11;;;;;;;4.75;2.80;;;14.30;99.90;;;;;;5040524;28;20312;-61
2023/07/08 03:08:36;;;;;;;7.10;3.17;;;14.30;99.90;;;;;;5042177;28;20045;-61
2023/07/08 03:11:03;;;;;;;;;;;14.20;99.90;;;;;;5042860;28;20110;-59
2023/07/08 03:13:30;;;;;;;6.95;3.00;;;14.30;99.90;;;;;;5042126;28;19920;-58
2023/07/08 03:15:56;;;;;;;8.73;2.58;;;14.30;99.90;;;;;;5044223;28;20110;-65
2023/07/08 03:18:26;;;;;;;5.57;3.33;;;14.20;99.90;;;;;;5041762;28;20071;-58
2023/07/08 03:20:55;;;;;;;6.75;3.05;;;14.20;99.90;;;;;;5044180;28;20033;-61
2023/07/08 03:23:21;;;;;;;7.75;2.85;;;14.10;99.90;;;;;;5042153;28;20544;-60
2023/07/08 03:25:48;;;;;;;6.15;2.75;;;14.10;99.90;;;;;;5042659;28;20049;-54
2023/07/08 03:28:14;;;;;;;6.28;3.00;;;14.10;99.90;;;;;;5040427;28;20064;-61
2023/07/08 03:30:41;;;;;;;5.20;2.72;;;14.10;99.90;;;;;;5034589;28;20112;-58
2023/07/08 03:33:08;;;;;;;6.18;2.60;;;14.10;99.90;;;;;;5041608;28;20044;-61
2023/07/08 03:35:33;;;;;;;4.53;2.90;;;14.10;99.90;;;;;;5042015;28;20037;-57
2023/07/08 03:37:59;;;;;;;;;;;14.20;99.90;;;;;;5040895;28;20044;-61
2023/07/08 03:40:25;;;;;;;4.75;2.70;;;14.20;99.90;;;;;;5043275;28;20003;-59
2023/07/08 03:42:50;;;;;;;;;;;14.20;99.90;;;;;;5040809;28;20568;-53
2023/07/08 03:45:16;;;;;;;4.70;2.72;;;14.20;99.90;;;;;;5042318;28;19983;-59
2023/07/08 03:47:41;;;;;;;;;;;14.20;99.90;;;;;;5041802;28;20044;-59
2023/07/08 03:50:20;;;;;;;5.20;2.60;;;14.30;99.90;;;;;;5035489;28;19920;-60
2023/07/08 03:52:47;;;;;;;4.97;2.40;;;14.50;99.90;;;;;;5042962;28;20047;-58
2023/07/08 03:55:13;;;;;;;8.43;3.25;;;14.60;99.90;;;;;;5046314;28;20045;-57
2023/07/08 03:57:38;;;;;;;;;;;14.60;99.90;;;;;;5044539;28;20152;-56
2023/07/08 04:00:09;;;;;;;8.52;3.13;;;14.60;99.90;;;;;;5046591;28;20016;-55
2023/07/08 04:02:35;;;;;;;6.75;3.38;;;14.70;99.90;;;;;;5038095;28;20147;-57
2023/07/08 04:05:01;;;;;;;12.93;3.25;;;14.80;99.90;;;;;;5045855;28;20052;-61
2023/07/08 04:07:27;;;;;;;3.95;2.75;;;14.90;99.90;;;;;;5045289;28;20445;-61
2023/07/08 04:09:52;;;;;;;;;;;15.00;99.90;;;;;;5047123;28;20044;-57
2023/07/08 04:12:18;;;;;;;8.55;2.85;;;15.10;99.90;;;;;;5044425;28;20039;-56
2023/07/08 04:14:44;;;;;;;;;;;15.20;99.90;;;;;;5045890;28;20113;-59
2023/07/08 04:17:10;;;;;;;6.22;2.80;;;15.20;99.90;;;;;;5044027;28;19955;-56
2023/07/08 04:19:36;;;;;;;4.53;2.70;;;15.10;99.90;;;;;;5043720;28;20136;-55
2023/07/08 04:22:02;;;;;;;;;;;15.10;99.90;;;;;;5045898;28;20120;-58
2023/07/08 04:24:28;;;;;;;5.88;3.03;;;15.00;99.90;;;;;;5044749;28;19916;-56
2023/07/08 04:26:53;;;;;;;;;;;15.00;99.90;;;;;;5045770;28;20323;-59
2023/07/08 04:29:21;;;;;;;5.63;2.70;;;15.00;99.90;;;;;;5043620;28;19921;-58
2023/07/08 04:31:47;;;;;;;3.67;2.55;;;15.00;99.90;;;;;;5042192;28;20041;-58
2023/07/08 04:34:14;;;;;;;4.60;3.28;;;15.10;99.90;;;;;;5041091;28;20162;-60
2023/07/08 04:36:40;;;;;;;4.85;3.38;;;15.10;99.90;;;;;;5044928;28;20481;-62
2023/07/08 04:39:07;;;;;;;;;;;15.10;99.90;;;;;;5045420;28;20064;-58
2023/07/08 04:41:32;;;;;;;6.20;3.13;;;15.00;99.90;;;;;;5043616;28;19969;-58
2023/07/08 04:44:02;;;;;;;;;;;15.00;99.90;;;;;;5044518;28;20045;-59
2023/07/08 04:46:36;;;;;;;5.50;3.17;;;15.10;99.90;;;;;;5045430;28;20679;-59
2023/07/08 04:49:03;;;;;;;4.93;3.00;;;15.00;99.90;;;;;;5044729;28;20067;-60
2023/07/08 04:51:29;;;;;;;11.65;4.18;;;15.10;99.90;;;;;;5037900;28;20090;-57
2023/07/08 04:53:55;;;;;;;6.50;3.17;;;15.10;99.90;;;;;;5044143;28;20033;-56
2023/07/08 04:56:21;;;;;;;;;;;15.20;99.90;;;;;;5059972;28;20110;-51
2023/07/08 04:58:47;;;;;;;4.82;2.70;;;15.30;99.90;;;;;;5044829;28;19912;-54
2023/07/08 05:01:12;;;;;;;;;;;15.30;99.90;;;;;;5046229;28;20645;-53
2023/07/08 05:03:38;;;;;;;4.40;2.92;;;15.40;99.90;;;;;;5043751;28;19921;-57
2023/07/08 05:06:03;;;;;;;;;;;15.40;99.90;;;;;;5044115;28;20045;-56
2023/07/08 05:08:29;;;;;;;6.47;3.22;;;15.40;99.90;;;;;;5044492;28;20360;-58
2023/07/08 05:10:58;;;;;;;;;;;15.50;99.90;;;;;;5045284;28;20037;-58
2023/07/08 05:13:23;;;;;;;4.88;3.25;;;15.50;99.90;;;;;;5043189;28;19921;-52
2023/07/08 05:15:49;;;;;;;;;;;15.60;99.90;;;;;;5046197;28;20098;-55
2023/07/08 05:18:15;;;;;;;5.55;3.33;;;15.70;99.90;;;;;;5043305;28;19921;-57
2023/07/08 05:20:40;;;;;;;7.95;3.47;;;15.80;99.90;;;;;;5044977;28;20448;-55
2023/07/08 05:23:06;;;;;;;;;;;15.80;99.90;;;;;;5044072;28;20853;-54
2023/07/08 05:25:33;;;;;;;5.97;3.00;;;15.90;99.90;;;;;;5045996;28;19951;-57
2023/07/08 05:27:59;;;;;;;4.07;2.85;;;15.90;99.90;;;;;;5043714;28;20393;-60
2023/07/08 05:30:25;;;;;;;6.03;3.22;;;16.00;99.90;;;;;;5041040;28;20040;-60
2023/07/08 05:32:50;;;;;;;;;;;16.10;99.90;;;;;;5043760;28;20182;-56
2023/07/08 05:35:16;;;;;;;4.60;3.08;;;16.20;99.90;;;;;;5044395;28;19929;-57
2023/07/08 05:37:44;;;;;;;7.80;2.97;;;16.20;99.90;;;;;;5042170;28;20037;-58
2023/07/08 05:40:10;;;;;;;6.90;3.25;;;16.40;99.90;;;;;;5040860;28;20120;-55
2023/07/08 05:42:36;;;;;;;;;;;16.50;99.90;;;;;;5044747;28;20132;-58
2023/07/08 05:45:02;;;;;;;12.52;3.10;;;16.60;99.90;;;;;;5044020;28;20024;-53
2023/07/08 05:47:27;;;;;;;8.60;4.03;;;16.60;99.90;;;;;;5042119;28;20041;-61
2023/07/08 05:49:53;;;;;;;;;;;16.80;99.90;;;;;;5042318;28;20087;-51
2023/07/08 05:52:18;;;;;;;4.57;2.80;;;16.90;99.90;;;;;;5041052;28;19921;-56
2023/07/08 05:54:44;;;;;;;;;;;17.00;99.90;;;;;;5044106;28;20029;-56
2023/07/08 05:57:10;;;;;;;5.03;3.20;;;17.10;99.90;;;;;;5050177;28;20297;-55
2023/07/08 05:59:38;;;;;;;7.93;3.78;;;17.20;99.90;;;;;;5040979;28;20037;-60
2023/07/08 06:02:04;;;;;;;6.97;3.58;;;17.20;99.90;;;;;;5042146;28;20037;-59
2023/07/08 06:04:30;;;;;;;;;;;17.30;99.90;;;;;;5043172;28;20033;-59
2023/07/08 06:06:56;;;;;;;5.60;3.47;;;17.40;99.90;;;;;;5042559;28;19968;-57
2023/07/08 06:09:22;;;;;;;7.00;3.65;;;17.40;99.90;;;;;;5043773;28;20086;-58
2023/07/08 06:11:47;;;;;;;;;;;17.50;99.90;;;;;;5042869;28;20060;-54
2023/07/08 06:14:13;;;;;;;6.15;3.15;;;17.50;99.90;;;;;;5041890;28;19920;-56
2023/07/08 06:16:38;;;;;;;7.45;3.33;;;17.50;99.90;;;;;;5034659;28;20060;-58
2023/07/08 06:19:04;;;;;;;;;;;17.50;99.90;;;;;;5042381;28;20691;-58
2023/07/08 06:21:29;;;;;;;7.80;3.78;;;17.60;99.90;;;;;;5043167;28;19999;-55
2023/07/08 06:23:55;;;;;;;10.57;3.45;;;17.60;99.90;;;;;;5041334;28;20033;-57
2023/07/08 06:26:20;;;;;;;7.55;3.40;;;17.60;99.90;;;;;;5041866;28;20489;-60
2023/07/08 06:28:46;;;;;;;6.28;3.50;;;17.60;99.90;;;;;;5054386;28;20029;-59
2023/07/08 06:31:12;;;;;;;5.65;2.97;;;17.60;99.90;;;;;;5040801;28;20107;-57
2023/07/08 06:33:37;;;;;;;;;;;17.60;99.90;;;;;;5043574;28;20044;-59
2023/07/08 06:36:03;;;;;;;5.80;3.20;;;17.60;99.90;;;;;;5042418;28;20007;-58
2023/07/08 06:38:28;;;;;;;;;;;17.60;99.90;;;;;;5042941;28;20382;-58
2023/07/08 06:40:54;;;;;;;8.68;4.22;;;17.60;99.90;;;;;;5043213;28;19960;-61
2023/07/08 06:43:19;;;;;;;10.57;3.70;;;17.60;99.90;;;;;;5042040;28;20374;-61
2023/07/08 06:45:45;;;;;;;;;;;17.70;99.90;;;;;;5043180;28;20048;-61
2023/07/08 06:48:11;;;;;;;9.25;3.88;;;17.80;99.90;;;;;;5041637;28;20016;-56
2023/07/08 06:50:38;;;;;;;8.23;3.72;;;18.20;99.90;;;;;;5041662;28;20036;-58
2023/07/08 06:53:03;;;;;;;6.20;3.47;;;18.70;99.90;;;;;;5042141;28;20045;-59
2023/07/08 06:55:30;;;;;;;;;;;19.50;99.90;;;;;;5044091;28;20035;-57
2023/07/08 06:57:55;;;;;;;8.35;3.35;;;20.40;99.90;;;;;;5041246;28;19917;-59
2023/07/08 07:00:21;;;;;;;6.15;3.42;;;21.60;99.90;;;;;;5042129;28;20124;-60
2023/07/08 07:02:46;;;;;;;5.20;3.63;;;22.30;99.90;;;;;;5041364;28;20040;-57
2023/07/08 07:05:12;;;;;;;6.95;3.33;;;22.40;99.90;;;;;;5042799;28;20082;-58
2023/07/08 07:07:38;;;;;;;5.43;3.55;;;22.10;99.90;;;;;;5042193;28;20041;-59
2023/07/08 07:10:04;;;;;;;6.40;3.13;;;22.10;99.90;;;;;;5043165;28;20115;-56
2023/07/08 07:12:29;;;;;;;5.50;3.30;;;22.00;99.40;;;;;;5043387;28;20041;-53
2023/07/08 07:14:55;;;;;;;5.25;3.33;;;22.00;98.20;;;;;;5042025;28;20037;-60
2023/07/08 07:17:22;;;;;;;5.05;2.60;;;22.20;96.50;;;;;;5041506;28;20048;-58
2023/07/08 07:19:48;;;;;;;4.30;3.05;;;22.70;95.50;;;;;;5040818;28;20045;-56
2023/07/08 07:22:14;;;;;;;6.80;3.38;;;23.20;93.10;;;;;;5042694;28;20436;-55
2023/07/08 07:24:40;;;;;;;10.13;3.63;;;24.00;93.80;;;;;;5042482;28;20139;-55
2023/07/08 07:27:06;;;;;;;7.63;3.17;;;24.90;92.00;;;;;;5042436;28;20072;-56
2023/07/08 07:29:47;;;;;;;4.68;3.28;;;25.90;84.30;;;;;;5046170;28;20136;-56
2023/07/08 07:32:14;;;;;;;4.00;2.97;;;26.80;79.60;;;;;;5044928;28;20393;-59
2023/07/08 07:34:40;;;;;;;5.45;3.67;;;26.90;69.90;;;;;;5047561;28;20041;-60
2023/07/08 07:37:10;;;;;;;6.25;3.45;;;26.30;72.60;;;;;;5047849;28;20103;-60
2023/07/08 07:39:35;;;;;;;6.40;4.20;;;25.80;73.30;;;;;;5047009;28;21274;-60
2023/07/08 07:42:01;;;;;;;5.07;3.40;;;25.30;76.30;;;;;;5046006;28;20064;-59
2023/07/08 07:44:27;;;;;;;4.55;3.25;;;25.00;75.20;;;;;;5045280;28;20069;-59
2023/07/08 07:46:54;;;;;;;5.43;4.00;;;24.70;77.20;;;;;;5044673;28;20040;-60
2023/07/08 07:49:20;;;;;;;5.97;3.70;;;24.50;77.60;;;;;;5046346;28;20098;-60
2023/07/08 07:51:46;;;;;;;9.63;4.13;;;24.30;79.60;;;;;;5045604;28;20521;-59
2023/07/08 07:54:12;;;;;;;5.95;4.15;;;24.20;79.40;;;;;;5046198;28;20044;-58
2023/07/08 07:56:37;;;;;;;8.18;3.60;;;24.30;80.80;;;;;;5045814;28;20095;-60
2023/07/08 07:59:03;;;;;;;9.32;3.58;;;24.40;78.00;;;;;;5046679;28;20040;-56
2023/07/08 08:01:30;;;;;;;6.80;3.30;;;24.60;79.50;;;;;;5042390;28;20083;-57
2023/07/08 08:03:55;;;;;;;5.57;3.97;;;24.70;78.20;;;;;;5045323;28;20041;-60
2023/07/08 08:06:21;;;;;;;8.43;4.55;;;24.70;78.30;;;;;;5045629;28;20041;-59
2023/07/08 08:08:47;;;;;;;6.38;3.55;;;24.70;79.60;;;;;;5046675;28;20047;-61
2023/07/08 08:11:13;;;;;;;7.10;4.03;;;25.10;74.80;;;;;;5046369;28;20111;-55
2023/07/08 08:13:39;;;;;;;6.55;3.45;;;25.80;76.00;;;;;;5046474;28;20465;-58
2023/07/08 08:16:04;;;;;;;9.80;3.72;;;26.80;69.60;;;;;;5045139;28;20401;-60
2023/07/08 08:18:30;;;;;;;5.70;3.58;;;27.20;67.60;;;;;;5045907;28;20501;-59
2023/07/08 08:20:56;;;;;;;7.05;3.17;;;27.20;70.00;;;;;;5046239;28;20131;-59
2023/07/08 08:23:22;;;;;;;6.78;4.28;;;27.30;70.70;;;;;;5045407;28;20136;-60
2023/07/08 08:25:47;;;;;;;16.52;3.92;;;27.40;71.50;;;;;;5045248;28;20045;-60
2023/07/08 08:28:13;;;;;;;12.13;4.00;;;27.10;70.20;;;;;;5043205;28;20044;-55
2023/07/08 08:30:39;;;;;;;5.97;3.47;;;26.90;69.40;;;;;;5044739;28;20037;-60
2023/07/08 08:33:05;;;;;;;7.15;4.50;;;26.60;70.00;;;;;;5044019;28;20519;-59
2023/07/08 08:35:30;;;;;;;13.20;4.22;;;26.50;69.40;;;;;;5046258;28;20503;-60
2023/07/08 08:37:56;;;;;;;5.10;3.67;;;26.20;68.70;;;;;;5042850;28;20040;-56
2023/07/08 08:40:22;;;;;;;4.97;3.38;;;27.10;71.40;;;;;;5045423;28;20068;-60
2023/07/08 08:43:00;;;;;;;9.27;3.58;;;27.40;65.00;;;;;;5045001;28;20428;-57
2023/07/08 08:45:28;;;;;;;8.38;3.75;;;28.20;65.30;;;;;;5044775;28;20044;-59
2023/07/08 08:48:03;;;;;;;5.30;3.90;;;29.00;65.30;;;;;;5044736;28;20106;-53
2023/07/08 08:50:33;;;;;;;8.43;3.80;;;30.30;60.90;;;;;;5039965;28;20467;-58
2023/07/08 08:53:03;;;;;;;5.40;3.50;;;31.50;61.60;;;;;;5044866;28;20136;-58
2023/07/08 08:55:29;;;;;;;6.43;4.43;;;32.20;56.00;;;;;;5044878;28;20086;-61
2023/07/08 08:58:24;;;;;;;5.10;3.70;;;32.00;53.80;;;;;;5043011;28;20043;-60
2023/07/08 09:00:54;;;;;;;6.05;3.80;;;32.30;54.00;;;;;;5038208;28;20037;-60
2023/07/08 09:03:33;;;;;;;5.22;3.47;;;32.00;54.60;;;;;;5044435;28;20067;-58
2023/07/08 09:05:59;;;;;;;5.30;3.45;;;31.40;54.30;;;;;;5043385;28;20059;-55
2023/07/08 09:08:36;;;;;;;4.40;3.22;;;30.10;55.60;;;;;;5045071;28;20052;-57
2023/07/08 09:11:25;;;;;;;7.20;3.97;;;29.20;57.80;;;;;;5045221;28;20045;-54
2023/07/08 09:13:52;;;;;;;6.55;3.75;;;28.40;59.10;;;;;;5044507;28;20521;-60
2023/07/08 09:16:46;;;;;;;9.90;3.92;;;28.00;60.40;;;;;;5043504;28;20145;-59
2023/07/08 09:19:23;;;;;;;6.93;4.18;;;27.50;60.70;;;;;;5044436;28;20456;-57
2023/07/08 09:22:15;;;;;;;6.85;3.95;;;27.30;60.30;;;;;;5038264;28;20041;-59
2023/07/08 09:25:03;;;;;;;5.53;3.88;;;27.10;61.50;;;;;;5043743;28;20033;-57
2023/07/08 09:27:28;;;;;;;7.68;3.78;;;27.00;61.20;;;;;;5042708;28;20037;-57
2023/07/08 09:29:54;;;;;;;6.82;3.60;;;26.90;62.30;;;;;;5045222;28;20052;-57
2023/07/08 09:32:22;;;;;;;7.05;4.28;;;26.90;63.40;;;;;;5042477;28;20069;-60
2023/07/08 09:34:54;;;;;;;8.52;3.97;;;26.80;64.80;;;;;;5041490;28;20043;-61
2023/07/08 09:37:26;;;;;;;5.72;4.22;;;26.90;61.90;;;;;;5040695;28;20128;-59
2023/07/08 09:39:53;;;;;;;5.45;4.10;;;26.90;61.70;;;;;;5042199;28;20051;-60
2023/07/08 09:42:21;;;;;;;6.22;4.25;;;26.90;63.00;;;;;;5042927;28;20065;-59
2023/07/08 09:44:47;;;;;;;5.30;3.88;;;26.90;62.00;;;;;;5043456;28;20028;-56
2023/07/08 09:47:40;;;;;;;7.90;4.22;;;26.90;62.70;;;;;;5042470;28;20079;-59
2023/07/08 09:50:23;;;;;;;7.10;4.47;;;27.00;61.60;;;;;;5034870;28;20049;-56
2023/07/08 09:52:50;;;;;;;6.10;3.75;;;26.90;62.30;;;;;;5039335;28;20041;-58
2023/07/08 09:55:16;;;;;;;6.55;4.47;;;26.90;63.30;;;;;;5042149;28;20501;-60
2023/07/08 09:57:44;;;;;;;5.22;3.53;;;26.90;63.40;;;;;;5043045;28;20102;-56
2023/07/08 10:00:15;;;;;;;8.05;4.43;;;27.00;65.10;;;;;;5040743;28;20094;-60
2023/07/08 10:02:43;;;;;;;9.05;4.20;;;27.10;63.80;;;;;;5041061;28;20047;-60
2023/07/08 10:05:18;;;;;;;8.88;4.70;;;27.00;62.10;;;;;;5039898;28;20123;-59
2023/07/08 10:07:46;;;;;;;8.15;4.32;;;27.10;64.10;;;;;;5042991;28;20481;-60
2023/07/08 10:10:17;;;;;;;8.25;4.72;;;27.10;64.20;;;;;;5044274;28;20073;-58
2023/07/08 10:12:51;;;;;;;8.05;4.38;;;27.20;65.70;;;;;;5042059;28;20095;-52
2023/07/08 10:15:55;;;;;;;6.32;4.13;;;27.30;64.70;;;;;;5041333;28;20051;-56
2023/07/08 10:18:28;;;;;;;6.90;4.28;;;27.40;63.40;;;;;;5028052;28;20513;-59
2023/07/08 10:21:08;;;;;;;6.60;4.70;;;27.60;64.30;;;;;;5042964;28;20060;-61
2023/07/08 10:24:11;;;;;;;7.88;4.53;;;27.60;63.40;;;;;;5035641;28;20190;-57
2023/07/08 10:26:38;;;;;;;7.25;4.07;;;27.70;62.80;;;;;;5042002;28;20049;-60
2023/07/08 10:29:34;;;;;;;8.57;4.78;;;27.70;64.50;;;;;;5043128;28;20044;-56
2023/07/08 10:32:18;;;;;;;8.98;4.53;;;27.60;62.60;;;;;;5038305;28;20041;-59
2023/07/08 10:34:53;;;;;;;10.05;4.60;;;27.70;62.30;;;;;;5041733;28;20555;-58
2023/07/08 10:37:35;;;;;;;9.32;5.68;;;27.70;59.20;;;;;;5043115;28;20133;-53
2023/07/08 10:40:31;;;;;;;9.25;5.32;;;27.80;64.30;;;;;;5043296;28;20041;-57
2023/07/08 10:43:05;;;;;;;9.50;4.72;;;27.90;63.30;;;;;;5039700;28;20045;-54
2023/07/08 10:45:49;;;;;;;8.38;5.30;;;28.00;58.80;;;;;;5043422;28;20119;-61
2023/07/08 10:48:42;;;;;;;6.32;4.57;;;27.90;59.20;;;;;;5041176;28;20044;-61
2023/07/08 10:51:16;;;;;;;8.75;4.85;;;27.90;60.40;;;;;;5039373;28;20048;-55
2023/07/08 10:54:11;;;;;;;8.40;5.05;;;28.00;59.00;;;;;;5043619;28;20036;-58
2023/07/08 10:56:54;;;;;;;16.98;5.05;;;28.10;63.40;;;;;;5040947;28;20420;-56
2023/07/08 10:59:38;;;;;;;9.20;4.70;;;28.20;60.00;;;;;;5042883;28;20037;-54
2023/07/08 11:02:15;;;;;;;6.65;4.60;;;28.30;59.60;;;;;;5041133;28;20045;-56
2023/07/08 11:05:12;;;;;;;7.63;5.00;;;28.30;58.20;;;;;;5042571;28;20048;-61
2023/07/08 11:07:55;;;;;;;7.93;4.70;;;28.30;57.50;;;;;;5021975;28;20068;-57
2023/07/08 11:10:29;;;;;;;5.90;4.65;;;28.40;57.00;;;;;;5041884;28;20076;-59
2023/07/08 11:13:12;;;;;;;6.97;4.43;;;28.40;59.20;;;;;;5041511;28;20191;-56
2023/07/08 11:16:00;;;;;;;6.57;4.28;;;28.40;56.40;;;;;;5043252;28;20045;-54
2023/07/08 11:18:49;;;;;;;6.70;4.55;;;28.50;56.80;;;;;;5040946;28;20076;-58
2023/07/08 11:21:29;;;;;;;6.05;4.50;;;28.50;55.40;;;;;;5042120;28;20386;-55
2023/07/08 11:24:14;;;;;;;11.02;4.60;;;28.50;56.50;;;;;;5042426;28;20520;-61
2023/07/08 11:26:43;;;;;;;7.00;4.90;;;28.60;58.70;;;;;;5037864;28;20505;-59
2023/07/08 11:29:20;;;;;;;6.90;5.03;;;28.60;55.90;;;;;;5038852;28;20033;-59
2023/07/08 11:31:47;;;;;;;7.47;4.68;;;28.60;55.70;;;;;;5033997;28;20045;-54
2023/07/08 11:34:15;;;;;;;9.05;4.68;;;28.60;55.60;;;;;;5041807;28;20072;-59
2023/07/08 11:36:43;;;;;;;8.50;4.97;;;28.70;53.70;;;;;;5041520;28;20044;-59
2023/07/08 11:39:34;;;;;;;6.50;4.20;;;28.70;54.10;;;;;;5042196;28;20025;-61
2023/07/08 11:42:14;;;;;;;7.00;4.40;;;28.80;55.40;;;;;;5036595;28;20448;-60
2023/07/08 11:44:47;;;;;;;6.32;4.25;;;28.80;55.20;;;;;;5041561;28;20777;-56
2023/07/08 11:47:20;;;;;;;6.88;4.13;;;28.90;57.10;;;;;;5039810;28;20705;-54
2023/07/08 11:49:49;;;;;;;5.97;3.97;;;29.00;56.10;;;;;;5039125;28;20045;-60
2023/07/08 11:52:18;;;;;;;8.27;5.15;;;29.10;54.80;;;;;;5039865;28;20041;-56
2023/07/08 11:54:54;;;;;;;7.40;4.50;;;29.10;54.50;;;;;;5041568;28;20041;-57
2023/07/08 11:57:36;;;;;;;7.47;4.32;;;29.10;53.30;;;;;;5041701;28;20052;-56
2023/07/08 12:00:16;;;;;;;7.75;4.45;;;29.30;52.80;;;;;;5042960;28;20104;-57
2023/07/08 12:02:57;;;;;;;5.70;4.20;;;29.20;53.50;;;;;;5035441;28;20094;-56
2023/07/08 12:05:34;;;;;;;7.60;4.78;;;29.20;55.20;;;;;;5041507;28;20418;-59
2023/07/08 12:08:03;;;;;;;5.97;4.25;;;29.30;51.90;;;;;;5040602;28;20048;-61
2023/07/08 12:10:40;;;;;;;11.27;5.28;;;29.30;56.30;;;;;;5043826;28;20036;-59
2023/07/08 12:13:19;;;;;;;6.82;4.53;;;29.10;54.80;;;;;;5041554;28;20040;-61
2023/07/08 12:15:45;;;;;;;7.88;5.28;;;29.40;55.40;;;;;;5039271;28;20379;-56
2023/07/08 12:18:22;;;;;;;9.40;5.40;;;29.40;52.90;;;;;;5044677;28;20095;-61
2023/07/08 12:20:55;;;;;;;9.23;5.30;;;29.50;52.30;;;;;;5040696;28;20044;-59
2023/07/08 12:23:23;;;;;;;6.78;4.68;;;29.60;52.90;;;;;;5044967;28;20040;-58
2023/07/08 12:25:49;;;;;;;8.25;5.28;;;29.70;53.40;;;;;;5045467;28;20037;-60
2023/07/08 12:28:15;;;;;;;7.97;5.32;;;29.70;52.40;;;;;;5043763;28;20045;-56
2023/07/08 12:30:43;;;;;;;9.82;5.15;;;29.50;53.40;;;;;;5045990;28;20048;-55
2023/07/08 12:33:16;;;;;;;37.10;13.07;;;29.50;52.00;;;;;;5036909;28;20031;-60
2023/07/08 12:35:43;;;;;;;7.38;5.00;;;29.40;54.40;;;;;;5039485;28;20040;-57
2023/07/08 12:38:27;;;;;;;11.80;5.20;;;29.40;54.00;;;;;;5055290;28;20509;-55
2023/07/08 12:40:53;;;;;;;7.63;5.00;;;29.50;52.10;;;;;;5039418;28;20037;-60
2023/07/08 12:43:19;;;;;;;7.88;5.50;;;29.60;52.80;;;;;;5045064;28;20401;-58
2023/07/08 12:45:45;;;;;;;8.85;4.90;;;29.60;50.20;;;;;;5045244;28;20025;-60
2023/07/08 12:48:11;;;;;;;10.90;5.70;;;29.60;51.00;;;;;;5056042;28;20041;-60
2023/07/08 12:50:36;;;;;;;12.70;5.38;;;29.70;51.70;;;;;;5040121;28;20040;-61
2023/07/08 12:53:09;;;;;;;8.20;4.55;;;29.80;51.00;;;;;;5044269;28;20028;-60
2023/07/08 12:55:39;;;;;;;7.78;5.40;;;29.80;51.40;;;;;;5044260;28;20033;-60
2023/07/08 12:58:05;;;;;;;9.10;5.63;;;29.90;52.10;;;;;;5044993;28;20032;-60
2023/07/08 13:00:37;;;;;;;12.98;5.18;;;29.80;51.00;;;;;;5045973;28;20037;-58
2023/07/08 13:03:05;;;;;;;9.60;5.20;;;29.80;52.40;;;;;;5043670;28;20508;-60
2023/07/08 13:05:31;;;;;;;9.27;5.78;;;29.90;53.10;;;;;;5044402;28;20049;-59
2023/07/08 13:07:58;;;;;;;8.35;4.80;;;30.10;54.20;;;;;;5043772;28;20434;-61
2023/07/08 13:10:27;;;;;;;9.70;5.13;;;29.90;52.40;;;;;;5045554;28;20048;-58
2023/07/08 13:12:58;;;;;;;12.02;5.20;;;30.10;52.40;;;;;;5044133;28;20029;-59